St Columb Major, United Kingdom
Current Conditions -  °F | °C
As of 2:20 PM on Friday 24 Oct 2014 (Local Time) from EGHQ Reporting Station
Drizzle Drizzle  
Wind Chill: 54°   Ceiling: 300
Heat Index: 54°   Visibility: 1.8mi
Dew Point: 52°   Wind: 16mph
Humidity: 94%   Direction: 310°NW
Pressure: 29.97"   Gusts: NA
Location:  50.43°N, 4.93°W
Report Text: EGHQ 241320Z 31014KT 3000 R30/1200 -DZ BR BKN003 12/11 Q1015
Loading
Personal Weather Stations






























Interactive Weather Map
Tropical Storm Tracking
New forecast layout! Learn more

10-Day Weather Forecast

Advertisements
Track Severe Weather on mobile